createdAt,value
2022-11-27T00:00:16.389Z,99.99
2022-11-27T00:01:16.399Z,99.99
2022-11-27T00:02:16.460Z,99.99
2022-11-27T00:03:16.402Z,99.99
2022-11-27T00:04:16.459Z,99.99
2022-11-27T00:05:16.334Z,99.99
2022-11-27T00:06:16.315Z,99.99
2022-11-27T00:07:16.358Z,99.99
2022-11-27T00:08:16.305Z,99.99
2022-11-27T00:09:16.315Z,99.99
2022-11-27T00:10:16.286Z,99.99
2022-11-27T00:11:16.275Z,99.99
2022-11-27T00:12:16.252Z,99.99
2022-11-27T00:13:16.270Z,99.99
2022-11-27T00:14:16.246Z,99.99
2022-11-27T00:15:17.435Z,99.99
2022-11-27T00:16:16.323Z,99.99
2022-11-27T00:17:16.200Z,99.99
2022-11-27T00:18:16.194Z,99.99
2022-11-27T00:19:16.214Z,99.99
2022-11-27T00:20:16.207Z,99.99
2022-11-27T00:21:16.161Z,99.99
2022-11-27T00:22:16.162Z,99.99
2022-11-27T00:23:16.138Z,99.99
2022-11-27T00:24:16.140Z,99.99
2022-11-27T00:25:16.117Z,99.99
2022-11-27T00:26:16.123Z,99.99
2022-11-27T00:27:16.117Z,99.99
2022-11-27T00:28:16.108Z,99.99
2022-11-27T00:29:16.070Z,99.99
2022-11-27T00:30:16.106Z,99.99
2022-11-27T00:31:16.192Z,99.99
2022-11-27T00:32:16.071Z,99.99
2022-11-27T00:33:16.036Z,99.99
2022-11-27T00:34:16.030Z,99.99
2022-11-27T00:35:16.044Z,99.99
2022-11-27T00:36:16.039Z,99.99
2022-11-27T00:37:16.022Z,99.99
2022-11-27T00:38:16.003Z,99.99
2022-11-27T00:39:15.985Z,99.90
2022-11-27T00:40:15.977Z,99.58
2022-11-27T00:41:15.958Z,99.58
2022-11-27T00:42:15.963Z,99.48
2022-11-27T00:43:15.936Z,99.38
2022-11-27T00:44:15.936Z,99.27
2022-11-27T00:45:15.907Z,99.48
2022-11-27T00:46:16.028Z,99.27
2022-11-27T00:47:15.910Z,99.22
2022-11-27T00:48:15.891Z,99.52
2022-11-27T00:49:15.883Z,99.63
2022-11-27T00:50:15.872Z,99.84
2022-11-27T00:51:15.855Z,99.84
2022-11-27T00:52:15.863Z,99.94
2022-11-27T00:53:15.833Z,99.94
2022-11-27T00:54:15.832Z,99.99
2022-11-27T00:55:15.812Z,99.99
2022-11-27T00:56:15.808Z,99.99
2022-11-27T00:57:15.817Z,99.99
2022-11-27T00:58:15.783Z,99.99
2022-11-27T00:59:15.780Z,99.99
2022-11-27T01:00:15.774Z,99.99
2022-11-27T01:01:15.768Z,99.99
2022-11-27T01:02:15.793Z,99.99
2022-11-27T01:03:15.800Z,99.99
2022-11-27T01:04:15.750Z,99.99
2022-11-27T01:05:15.711Z,99.99
2022-11-27T01:06:15.706Z,99.99
2022-11-27T01:07:15.783Z,99.99
2022-11-27T01:08:15.703Z,99.99
2022-11-27T01:09:15.676Z,99.99
2022-11-27T01:10:15.668Z,99.99
2022-11-27T01:11:15.654Z,99.99
2022-11-27T01:12:15.648Z,99.99
2022-11-27T01:13:15.652Z,99.99
2022-11-27T01:14:15.623Z,99.99
2022-11-27T01:15:15.609Z,99.99
2022-11-27T01:16:15.756Z,99.99
2022-11-27T01:17:15.580Z,99.99
2022-11-27T01:18:15.585Z,99.99
2022-11-27T01:19:15.583Z,99.99
2022-11-27T01:20:15.572Z,99.99
2022-11-27T01:21:15.537Z,99.99
2022-11-27T01:22:15.544Z,99.99
2022-11-27T01:23:15.527Z,99.99
2022-11-27T01:24:15.544Z,99.99
2022-11-27T01:25:15.501Z,99.99
2022-11-27T01:26:15.500Z,99.99
2022-11-27T01:27:15.489Z,99.99
2022-11-27T01:28:15.487Z,99.99
2022-11-27T01:29:15.485Z,99.99
2022-11-27T01:30:15.480Z,99.99
2022-11-27T01:31:15.511Z,99.99
2022-11-27T01:32:15.449Z,99.99
2022-11-27T01:33:15.426Z,99.99
2022-11-27T01:34:15.414Z,99.99
2022-11-27T01:35:15.437Z,99.99
2022-11-27T01:36:15.404Z,99.99
2022-11-27T01:37:15.384Z,99.99
2022-11-27T01:38:15.383Z,99.99
2022-11-27T01:39:15.365Z,99.99
2022-11-27T01:40:15.357Z,99.99
2022-11-27T01:41:15.360Z,99.99
2022-11-27T01:42:15.341Z,99.99
2022-11-27T01:43:15.328Z,99.99
2022-11-27T01:44:15.327Z,99.99
2022-11-27T01:45:15.322Z,99.99
2022-11-27T01:46:15.334Z,99.99
2022-11-27T01:47:15.277Z,99.99
2022-11-27T01:48:15.276Z,99.99
2022-11-27T01:49:15.253Z,99.99
2022-11-27T01:50:15.266Z,99.99
2022-11-27T01:51:15.257Z,99.99
2022-11-27T01:52:15.249Z,99.99
2022-11-27T01:53:15.215Z,99.99
2022-11-27T01:54:15.233Z,99.99
2022-11-27T01:55:15.199Z,99.99
2022-11-27T01:56:15.210Z,99.99
2022-11-27T01:57:15.181Z,99.99
2022-11-27T01:58:15.168Z,99.99
2022-11-27T01:59:15.183Z,99.99
2022-11-27T02:00:15.174Z,99.99
2022-11-27T02:01:15.177Z,99.99
2022-11-27T02:02:15.238Z,99.99
2022-11-27T02:03:15.153Z,99.99
2022-11-27T02:04:15.182Z,99.99
2022-11-27T02:05:15.101Z,99.99
2022-11-27T02:06:15.092Z,99.99
2022-11-27T02:07:15.123Z,99.99
2022-11-27T02:08:15.087Z,99.99
2022-11-27T02:09:15.049Z,99.99
2022-11-27T02:10:15.058Z,99.99
2022-11-27T02:11:15.039Z,99.99
2022-11-27T02:12:15.052Z,99.99
2022-11-27T02:13:15.014Z,99.99
2022-11-27T02:14:15.013Z,99.99
2022-11-27T02:15:14.997Z,99.99
2022-11-27T02:16:17.968Z,99.99
2022-11-27T02:17:14.964Z,99.99
2022-11-27T02:18:14.989Z,99.99
2022-11-27T02:19:14.962Z,99.99
2022-11-27T02:20:14.955Z,99.99
2022-11-27T02:21:14.936Z,99.99
2022-11-27T02:22:14.951Z,99.99
2022-11-27T02:23:14.920Z,99.99
2022-11-27T02:24:14.917Z,99.99
2022-11-27T02:25:14.898Z,99.99
2022-11-27T02:26:14.880Z,99.99
2022-11-27T02:27:14.876Z,99.99
2022-11-27T02:28:14.891Z,99.99
2022-11-27T02:29:14.850Z,99.99
2022-11-27T02:30:14.851Z,99.99
2022-11-27T02:31:14.892Z,99.99
2022-11-27T02:32:14.827Z,99.99
2022-11-27T02:33:14.814Z,99.99
2022-11-27T02:34:14.828Z,99.99
2022-11-27T02:35:14.798Z,99.99
2022-11-27T02:36:14.816Z,99.99
2022-11-27T02:37:14.776Z,99.99
2022-11-27T02:38:14.777Z,99.99
2022-11-27T02:39:14.748Z,99.99
2022-11-27T02:40:14.739Z,99.99
2022-11-27T02:41:14.744Z,99.99
2022-11-27T02:42:14.734Z,99.99
2022-11-27T02:43:14.724Z,99.99
2022-11-27T02:44:14.725Z,99.99
2022-11-27T02:45:14.686Z,99.99
2022-11-27T02:46:14.721Z,99.99
2022-11-27T02:47:14.684Z,99.99
2022-11-27T02:48:14.672Z,99.99
2022-11-27T02:49:14.650Z,99.99
2022-11-27T02:50:14.642Z,99.99
2022-11-27T02:51:14.645Z,99.99
2022-11-27T02:52:14.644Z,99.99
2022-11-27T02:53:14.600Z,99.99
2022-11-27T02:54:14.610Z,99.99
2022-11-27T02:55:14.586Z,99.99
2022-11-27T02:56:14.600Z,99.99
2022-11-27T02:57:14.585Z,99.99
2022-11-27T02:58:14.559Z,99.99
2022-11-27T02:59:14.561Z,99.99
2022-11-27T03:00:14.554Z,99.99
2022-11-27T03:01:14.520Z,99.99
2022-11-27T03:02:14.633Z,99.99
2022-11-27T03:03:14.597Z,99.99
2022-11-27T03:04:14.505Z,99.99
2022-11-27T03:05:14.488Z,99.99
2022-11-27T03:06:14.483Z,99.99
2022-11-27T03:07:14.497Z,99.99
2022-11-27T03:08:14.490Z,99.99
2022-11-27T03:09:14.440Z,99.99
2022-11-27T03:10:14.449Z,99.99
2022-11-27T03:11:14.422Z,99.99
2022-11-27T03:12:14.442Z,99.99
2022-11-27T03:13:14.407Z,99.99
2022-11-27T03:14:14.408Z,99.99
2022-11-27T03:15:14.388Z,99.99
2022-11-27T03:16:14.476Z,99.99
2022-11-27T03:17:14.377Z,99.99
2022-11-27T03:18:14.389Z,99.99
2022-11-27T03:19:14.344Z,99.99
2022-11-27T03:20:14.349Z,99.99
2022-11-27T03:21:14.330Z,99.99
2022-11-27T03:22:14.357Z,99.99
2022-11-27T03:23:14.430Z,99.99
2022-11-27T03:24:14.352Z,99.99
2022-11-27T03:25:14.299Z,99.99
2022-11-27T03:26:14.284Z,99.99
2022-11-27T03:27:14.268Z,99.99
2022-11-27T03:28:14.281Z,99.99
2022-11-27T03:29:14.244Z,99.99
2022-11-27T03:30:14.271Z,99.99
2022-11-27T03:31:14.265Z,99.99
2022-11-27T03:32:14.239Z,99.99
2022-11-27T03:33:14.202Z,99.99
2022-11-27T03:34:14.205Z,99.99
2022-11-27T03:35:14.191Z,99.99
2022-11-27T03:36:14.194Z,99.99
2022-11-27T03:37:14.181Z,99.99
2022-11-27T03:38:14.161Z,99.99
2022-11-27T03:39:14.145Z,99.99
2022-11-27T03:40:14.135Z,99.99
2022-11-27T03:41:14.129Z,99.99
2022-11-27T03:42:14.113Z,99.99
2022-11-27T03:43:14.132Z,99.99
2022-11-27T03:44:14.104Z,99.99
2022-11-27T03:45:14.073Z,99.99
2022-11-27T03:46:14.158Z,99.99
2022-11-27T03:47:14.116Z,99.99
2022-11-27T03:48:14.068Z,99.99
2022-11-27T03:49:14.042Z,99.99
2022-11-27T03:50:14.030Z,99.99
2022-11-27T03:51:14.027Z,99.99
2022-11-27T03:52:14.021Z,99.99
2022-11-27T03:53:14.000Z,99.99
2022-11-27T03:54:14.002Z,99.99
2022-11-27T03:55:13.981Z,99.99
2022-11-27T03:56:13.976Z,99.99
2022-11-27T03:57:13.951Z,99.99
2022-11-27T03:58:13.987Z,99.99
2022-11-27T03:59:13.941Z,99.99
2022-11-27T04:00:13.948Z,99.99
2022-11-27T04:01:13.915Z,99.99
2022-11-27T04:02:14.049Z,99.99
2022-11-27T04:03:13.915Z,99.99
2022-11-27T04:04:13.926Z,99.99
2022-11-27T04:05:13.878Z,99.99
2022-11-27T04:06:13.868Z,99.99
2022-11-27T04:07:13.880Z,99.99
2022-11-27T04:08:13.850Z,99.99
2022-11-27T04:09:13.835Z,99.99
2022-11-27T04:10:13.828Z,99.99
2022-11-27T04:11:13.811Z,99.99
2022-11-27T04:12:13.811Z,99.99
2022-11-27T04:13:13.808Z,99.99
2022-11-27T04:14:13.784Z,99.99
2022-11-27T04:15:13.785Z,99.99
2022-11-27T04:16:13.834Z,99.99
2022-11-27T04:17:13.753Z,99.99
2022-11-27T04:18:13.764Z,99.99
2022-11-27T04:19:13.731Z,99.99
2022-11-27T04:20:13.725Z,99.99
2022-11-27T04:21:13.732Z,99.99
2022-11-27T04:22:13.708Z,99.99
2022-11-27T04:23:13.729Z,99.99
2022-11-27T04:24:13.697Z,99.99
2022-11-27T04:25:13.674Z,99.99
2022-11-27T04:26:13.678Z,99.99
2022-11-27T04:27:13.646Z,99.99
2022-11-27T04:28:13.651Z,99.99
2022-11-27T04:29:13.649Z,99.99
2022-11-27T04:30:13.621Z,99.99
2022-11-27T04:31:13.703Z,99.99
2022-11-27T04:32:13.597Z,99.99
2022-11-27T04:33:13.619Z,99.99
2022-11-27T04:34:13.610Z,99.99
2022-11-27T04:35:13.580Z,99.99
2022-11-27T04:36:13.588Z,99.99
2022-11-27T04:37:13.556Z,99.99
2022-11-27T04:38:13.541Z,99.99
2022-11-27T04:39:13.552Z,99.99
2022-11-27T04:40:13.509Z,99.99
2022-11-27T04:41:13.527Z,99.99
2022-11-27T04:42:13.514Z,99.99
2022-11-27T04:43:13.495Z,99.99
2022-11-27T04:44:13.482Z,99.99
2022-11-27T04:45:13.498Z,99.99
2022-11-27T04:46:13.550Z,99.99
2022-11-27T04:47:13.452Z,99.99
2022-11-27T04:48:13.432Z,99.99
2022-11-27T04:49:13.442Z,99.99
2022-11-27T04:50:13.418Z,99.99
2022-11-27T04:51:13.432Z,99.91
2022-11-27T04:52:13.418Z,99.70
2022-11-27T04:53:13.396Z,99.70
2022-11-27T04:54:13.387Z,99.59
2022-11-27T04:55:13.369Z,99.70
2022-11-27T04:56:13.373Z,99.80
2022-11-27T04:57:13.396Z,99.59
2022-11-27T04:58:13.337Z,99.49
2022-11-27T04:59:13.358Z,99.49
2022-11-27T05:00:13.324Z,99.49
2022-11-27T05:01:13.474Z,99.38
2022-11-27T05:02:13.323Z,99.18
2022-11-27T05:03:13.418Z,99.28
2022-11-27T05:04:13.265Z,99.18
2022-11-27T05:05:13.296Z,99.18
2022-11-27T05:06:13.254Z,99.07
2022-11-27T05:07:13.336Z,98.97
2022-11-27T05:08:13.238Z,99.07
2022-11-27T05:09:13.233Z,98.97
2022-11-27T05:10:13.222Z,98.97
2022-11-27T05:11:13.207Z,98.97
2022-11-27T05:12:13.211Z,98.86
2022-11-27T05:13:13.192Z,98.97
2022-11-27T05:14:13.175Z,98.97
2022-11-27T05:15:13.168Z,98.76
2022-11-27T05:16:13.198Z,98.86
2022-11-27T05:17:13.146Z,98.86
2022-11-27T05:18:13.210Z,98.97
2022-11-27T05:19:13.128Z,99.18
2022-11-27T05:20:13.106Z,99.38
2022-11-27T05:21:13.112Z,99.28
2022-11-27T05:22:13.094Z,99.49
2022-11-27T05:23:13.104Z,99.49
2022-11-27T05:24:13.089Z,99.59
2022-11-27T05:25:13.070Z,99.70
2022-11-27T05:26:13.055Z,99.80
2022-11-27T05:27:13.045Z,99.80
2022-11-27T05:28:13.086Z,99.99
2022-11-27T05:29:13.035Z,99.99
2022-11-27T05:30:13.037Z,99.99
2022-11-27T05:31:13.047Z,99.99
2022-11-27T05:32:12.999Z,99.99
2022-11-27T05:33:12.985Z,99.99
2022-11-27T05:34:12.988Z,99.99
2022-11-27T05:35:12.987Z,99.91
2022-11-27T05:36:12.949Z,99.91
2022-11-27T05:37:19.022Z,99.80
2022-11-27T05:38:12.981Z,99.70
2022-11-27T05:39:12.922Z,99.70
2022-11-27T05:40:12.912Z,99.38
2022-11-27T05:41:12.912Z,99.28
2022-11-27T05:42:12.892Z,99.38
2022-11-27T05:43:12.897Z,99.28
2022-11-27T05:44:12.870Z,99.28
2022-11-27T05:45:12.894Z,99.22
2022-11-27T05:46:12.879Z,99.02
2022-11-27T05:47:12.840Z,99.12
2022-11-27T05:48:12.827Z,99.22
2022-11-27T05:49:12.828Z,99.33
2022-11-27T05:50:12.855Z,99.22
2022-11-27T05:51:12.812Z,99.22
2022-11-27T05:52:12.785Z,99.12
2022-11-27T05:53:12.782Z,99.33
2022-11-27T05:54:12.774Z,99.43
2022-11-27T05:55:12.780Z,99.54
2022-11-27T05:56:12.743Z,99.54
2022-11-27T05:57:12.752Z,99.64
2022-11-27T05:58:12.728Z,99.64
2022-11-27T05:59:12.813Z,99.74
2022-11-27T06:00:12.710Z,99.74
2022-11-27T06:01:12.732Z,99.85
2022-11-27T06:02:18.074Z,99.85
2022-11-27T06:03:12.765Z,99.95
2022-11-27T06:04:12.708Z,99.64
2022-11-27T06:05:12.677Z,99.43
2022-11-27T06:06:12.643Z,99.33
2022-11-27T06:07:12.734Z,99.33
2022-11-27T06:08:12.623Z,99.12
2022-11-27T06:09:13.595Z,99.02
2022-11-27T06:10:12.606Z,99.02
2022-11-27T06:11:12.595Z,98.81
2022-11-27T06:12:12.601Z,98.71
2022-11-27T06:13:12.586Z,98.55
2022-11-27T06:14:12.561Z,98.45
2022-11-27T06:15:12.560Z,98.39
2022-11-27T06:16:12.617Z,98.14
2022-11-27T06:17:12.541Z,98.29
2022-11-27T06:18:12.523Z,98.19
2022-11-27T06:19:12.526Z,98.29
2022-11-27T06:20:12.498Z,98.50
2022-11-27T06:21:12.521Z,98.50
2022-11-27T06:22:12.500Z,98.50
2022-11-27T06:23:12.484Z,98.50
2022-11-27T06:24:12.472Z,98.50
2022-11-27T06:25:12.470Z,98.50
2022-11-27T06:26:12.544Z,98.50
2022-11-27T06:27:12.443Z,98.39
2022-11-27T06:28:12.420Z,98.50
2022-11-27T06:29:12.480Z,98.60
2022-11-27T06:30:12.407Z,98.76
2022-11-27T06:31:17.558Z,98.81
2022-11-27T06:32:12.502Z,98.71
2022-11-27T06:33:12.381Z,98.50
2022-11-27T06:34:12.417Z,98.50
2022-11-27T06:35:12.357Z,98.39
2022-11-27T06:36:12.339Z,98.35
2022-11-27T06:37:13.460Z,98.24
2022-11-27T06:38:12.365Z,98.14
2022-11-27T06:39:12.322Z,98.14
2022-11-27T06:40:12.318Z,98.14
2022-11-27T06:41:12.322Z,98.14
2022-11-27T06:42:12.253Z,98.24
2022-11-27T06:43:12.250Z,98.14
2022-11-27T06:44:12.207Z,98.03
2022-11-27T06:45:12.215Z,97.83
2022-11-27T06:46:12.225Z,97.62
2022-11-27T06:47:12.188Z,97.41
2022-11-27T06:48:12.303Z,97.20
2022-11-27T06:49:12.181Z,97.20
2022-11-27T06:50:12.149Z,97.00
2022-11-27T06:51:12.138Z,96.89
2022-11-27T06:52:12.133Z,96.75
2022-11-27T06:53:12.123Z,96.85
2022-11-27T06:54:12.144Z,96.75
2022-11-27T06:55:12.091Z,96.54
2022-11-27T06:56:12.077Z,96.44
2022-11-27T06:57:12.103Z,96.33
2022-11-27T06:58:12.069Z,96.54
2022-11-27T06:59:12.065Z,96.33
2022-11-27T07:00:12.057Z,96.54
2022-11-27T07:01:12.096Z,96.64
2022-11-27T07:02:12.080Z,96.54
2022-11-27T07:03:12.024Z,96.64
2022-11-27T07:04:12.003Z,96.54
2022-11-27T07:05:12.021Z,96.23
2022-11-27T07:06:11.995Z,96.33
2022-11-27T07:07:12.019Z,96.33
2022-11-27T07:08:12.021Z,96.33
2022-11-27T07:09:11.962Z,96.23
2022-11-27T07:10:11.999Z,96.23
2022-11-27T07:11:11.935Z,96.23
2022-11-27T07:12:11.920Z,96.23
2022-11-27T07:13:11.932Z,96.23
2022-11-27T07:14:11.917Z,96.02
2022-11-27T07:15:11.918Z,95.92
2022-11-27T07:16:11.952Z,95.81
2022-11-27T07:17:11.901Z,95.61
2022-11-27T07:18:11.876Z,95.50
2022-11-27T07:19:11.888Z,95.61
2022-11-27T07:20:11.998Z,95.71
2022-11-27T07:21:11.914Z,95.50
2022-11-27T07:22:11.814Z,95.61
2022-11-27T07:23:11.819Z,95.81
2022-11-27T07:24:11.809Z,95.92
2022-11-27T07:25:11.796Z,96.12
2022-11-27T07:26:11.804Z,96.12
2022-11-27T07:27:11.773Z,95.50
2022-11-27T07:28:17.394Z,95.50
2022-11-27T07:29:11.765Z,95.50
2022-11-27T07:30:11.763Z,95.71
2022-11-27T07:31:11.840Z,95.29
2022-11-27T07:32:11.717Z,95.29
2022-11-27T07:33:11.714Z,95.50
2022-11-27T07:34:15.967Z,95.61
2022-11-27T07:35:11.698Z,94.98
2022-11-27T07:36:11.697Z,95.29
2022-11-27T07:37:11.684Z,95.09
2022-11-27T07:38:11.656Z,94.57
2022-11-27T07:39:11.669Z,95.19
2022-11-27T07:40:12.414Z,94.67
2022-11-27T07:41:11.673Z,95.40
2022-11-27T07:42:36.778Z,95.71
2022-11-27T07:43:11.624Z,95.71
2022-11-27T07:44:11.641Z,95.09
2022-11-27T07:45:11.598Z,94.78
2022-11-27T07:46:11.646Z,95.40
2022-11-27T07:47:11.606Z,95.09
2022-11-27T07:48:11.562Z,94.98
2022-11-27T07:49:11.562Z,94.78
2022-11-27T07:50:11.537Z,94.67
2022-11-27T07:51:11.532Z,94.26
2022-11-27T07:52:11.536Z,94.53
2022-11-27T07:53:11.526Z,94.15
2022-11-27T07:54:11.504Z,94.46
2022-11-27T07:55:11.491Z,94.32
2022-11-27T07:56:11.472Z,94.63
2022-11-27T07:57:11.531Z,94.94
2022-11-27T07:58:11.455Z,94.73
2022-11-27T07:59:11.499Z,94.84
2022-11-27T08:00:11.446Z,94.84
2022-11-27T08:01:11.478Z,94.42
2022-11-27T08:02:11.438Z,94.46
2022-11-27T08:03:11.419Z,94.94
2022-11-27T08:04:11.459Z,94.94
2022-11-27T08:05:13.194Z,94.63
2022-11-27T08:06:11.378Z,94.84
2022-11-27T08:07:11.418Z,95.04
2022-11-27T08:08:11.359Z,95.25
2022-11-27T08:09:11.362Z,96.19
2022-11-27T08:10:11.335Z,94.84
2022-11-27T08:11:11.334Z,94.53
2022-11-27T08:12:11.317Z,94.63
2022-11-27T08:13:11.315Z,94.68
2022-11-27T08:14:11.304Z,94.48
2022-11-27T08:15:11.298Z,94.27
2022-11-27T08:16:11.305Z,94.06
2022-11-27T08:17:11.265Z,93.85
2022-11-27T08:18:11.271Z,93.75
2022-11-27T08:19:11.243Z,93.44
2022-11-27T08:20:11.230Z,93.50
2022-11-27T08:21:11.228Z,92.98
2022-11-27T08:22:11.223Z,92.98
2022-11-27T08:23:11.221Z,92.88
2022-11-27T08:24:11.207Z,92.47
2022-11-27T08:25:11.194Z,92.36
2022-11-27T08:26:11.172Z,92.47
2022-11-27T08:27:14.086Z,92.05
2022-11-27T08:28:11.153Z,92.32
2022-11-27T08:29:11.215Z,92.43
2022-11-27T08:30:11.128Z,92.53
2022-11-27T08:31:11.191Z,91.80
2022-11-27T08:32:11.293Z,91.91
2022-11-27T08:33:11.105Z,91.70
2022-11-27T08:34:11.147Z,91.08
2022-11-27T08:35:11.094Z,91.24
2022-11-27T08:36:16.372Z,91.24
2022-11-27T08:37:11.102Z,91.14
2022-11-27T08:38:11.077Z,90.93
2022-11-27T08:39:11.057Z,90.68
2022-11-27T08:40:11.042Z,90.78
2022-11-27T08:41:11.033Z,90.58
2022-11-27T08:42:11.010Z,90.16
2022-11-27T08:43:11.226Z,89.71
2022-11-27T08:44:10.991Z,89.92
2022-11-27T08:45:11.038Z,89.50
2022-11-27T08:46:11.093Z,89.29
2022-11-27T08:47:10.995Z,89.61
2022-11-27T08:48:10.964Z,89.61
2022-11-27T08:49:10.952Z,89.36
2022-11-27T08:50:10.975Z,89.46
2022-11-27T08:51:10.914Z,89.56
2022-11-27T08:52:10.956Z,89.09
2022-11-27T08:53:10.954Z,89.36
2022-11-27T08:54:10.929Z,89.67
2022-11-27T08:55:10.905Z,88.94
2022-11-27T08:56:10.956Z,88.94
2022-11-27T08:57:10.891Z,88.84
2022-11-27T08:58:10.865Z,88.74
2022-11-27T08:59:10.816Z,89.09
2022-11-27T09:00:10.821Z,89.19
2022-11-27T09:01:10.916Z,89.40
2022-11-27T09:02:10.831Z,89.61
2022-11-27T09:03:10.799Z,89.50
2022-11-27T09:04:10.894Z,89.40
2022-11-27T09:05:10.790Z,89.61
2022-11-27T09:06:10.814Z,90.02
2022-11-27T09:07:10.784Z,90.02
2022-11-27T09:08:11.611Z,89.71
2022-11-27T09:09:10.741Z,90.02
2022-11-27T09:10:10.805Z,89.98
2022-11-27T09:11:10.759Z,89.56
2022-11-27T09:12:10.717Z,89.67
2022-11-27T09:13:10.987Z,89.67
2022-11-27T09:14:10.693Z,89.15
2022-11-27T09:15:10.684Z,89.15
2022-11-27T09:16:10.712Z,89.77
2022-11-27T09:17:10.648Z,90.19
2022-11-27T09:18:10.662Z,89.56
2022-11-27T09:19:10.627Z,89.67
2022-11-27T09:20:10.639Z,89.62
2022-11-27T09:21:10.601Z,89.11
2022-11-27T09:22:10.613Z,88.70
2022-11-27T09:23:14.394Z,89.01
2022-11-27T09:24:10.589Z,89.32
2022-11-27T09:25:10.584Z,89.42
2022-11-27T09:26:10.560Z,89.01
2022-11-27T09:27:10.553Z,88.49
2022-11-27T09:28:10.557Z,88.28
2022-11-27T09:29:10.586Z,88.49
2022-11-27T09:30:10.554Z,88.70
2022-11-27T09:31:10.532Z,88.70
2022-11-27T09:32:10.564Z,88.80
2022-11-27T09:33:10.498Z,89.01
2022-11-27T09:34:10.474Z,89.01
2022-11-27T09:35:10.544Z,89.01
2022-11-27T09:36:10.496Z,88.80
2022-11-27T09:37:10.440Z,89.32
2022-11-27T09:38:10.442Z,89.01
2022-11-27T09:39:10.413Z,89.22
2022-11-27T09:40:10.416Z,88.59
2022-11-27T09:41:10.509Z,88.59
2022-11-27T09:42:10.394Z,89.11
2022-11-27T09:43:10.379Z,88.70
2022-11-27T09:44:10.368Z,88.49
2022-11-27T09:45:10.390Z,88.80
2022-11-27T09:46:10.421Z,88.80
2022-11-27T09:47:10.346Z,88.65
2022-11-27T09:48:10.325Z,88.76
2022-11-27T09:49:10.311Z,88.45
2022-11-27T09:50:10.317Z,88.55
2022-11-27T09:51:10.303Z,89.07
2022-11-27T09:52:10.278Z,88.86
2022-11-27T09:53:10.267Z,89.48
2022-11-27T09:54:10.307Z,88.86
2022-11-27T09:55:10.252Z,88.55
2022-11-27T09:56:10.280Z,88.76
2022-11-27T09:57:10.241Z,88.92
2022-11-27T09:58:10.330Z,88.92
2022-11-27T09:59:10.208Z,88.71
2022-11-27T10:00:10.239Z,88.51
2022-11-27T10:01:10.240Z,88.10
2022-11-27T10:02:10.241Z,87.99
2022-11-27T10:03:10.355Z,87.68
2022-11-27T10:04:10.156Z,87.54
2022-11-27T10:05:14.409Z,87.13
2022-11-27T10:06:10.161Z,87.54
2022-11-27T10:07:10.224Z,87.34
2022-11-27T10:08:10.205Z,86.82
2022-11-27T10:09:10.110Z,86.92
2022-11-27T10:10:10.102Z,87.02
2022-11-27T10:11:10.089Z,87.54
2022-11-27T10:12:10.092Z,87.85
2022-11-27T10:13:10.083Z,87.65
2022-11-27T10:14:10.056Z,87.54
2022-11-27T10:15:10.054Z,87.85
2022-11-27T10:16:10.123Z,88.06
2022-11-27T10:17:10.158Z,87.85
2022-11-27T10:18:10.013Z,87.44
2022-11-27T10:19:10.043Z,87.48
2022-11-27T10:20:10.005Z,87.74
2022-11-27T10:21:09.971Z,87.85
2022-11-27T10:22:09.983Z,87.85
2022-11-27T10:23:09.944Z,87.95
2022-11-27T10:24:09.962Z,87.95
2022-11-27T10:25:09.933Z,87.85
2022-11-27T10:26:09.927Z,87.65
2022-11-27T10:27:09.916Z,87.74
2022-11-27T10:28:09.919Z,88.37
2022-11-27T10:29:09.907Z,88.26
2022-11-27T10:30:09.897Z,88.47
2022-11-27T10:31:09.857Z,88.37
2022-11-27T10:32:22.129Z,88.16
2022-11-27T10:33:09.881Z,88.26
2022-11-27T10:34:10.025Z,88.16
2022-11-27T10:35:09.832Z,87.85
2022-11-27T10:36:09.825Z,88.26
2022-11-27T10:37:09.825Z,88.06
2022-11-27T10:38:09.809Z,88.06
2022-11-27T10:39:09.777Z,88.26
2022-11-27T10:40:10.071Z,88.68
2022-11-27T10:41:15.006Z,88.57
2022-11-27T10:42:09.762Z,88.78
2022-11-27T10:43:09.751Z,88.26
2022-11-27T10:44:09.746Z,88.37
2022-11-27T10:45:09.741Z,88.64
2022-11-27T10:46:09.764Z,88.53
2022-11-27T10:47:09.718Z,88.02
2022-11-27T10:48:09.708Z,88.16
2022-11-27T10:49:09.744Z,88.02
2022-11-27T10:50:09.696Z,88.22
2022-11-27T10:51:16.161Z,88.26
2022-11-27T10:52:09.668Z,88.12
2022-11-27T10:53:09.629Z,88.32
2022-11-27T10:54:09.638Z,88.64
2022-11-27T10:55:09.733Z,88.74
2022-11-27T10:56:09.632Z,88.64
2022-11-27T10:57:09.592Z,88.32
2022-11-27T10:58:09.586Z,88.22
2022-11-27T10:59:09.575Z,88.74
2022-11-27T11:00:09.747Z,88.53
2022-11-27T11:01:09.671Z,88.22
2022-11-27T11:02:09.620Z,88.22
2022-11-27T11:03:09.546Z,88.02
2022-11-27T11:04:35.846Z,88.22
2022-11-27T11:05:32.779Z,88.22
2022-11-27T11:06:20.634Z,88.74
2022-11-27T11:07:09.508Z,88.32
2022-11-27T11:08:09.495Z,87.81
2022-11-27T11:09:09.475Z,87.92
2022-11-27T11:10:09.498Z,87.81
2022-11-27T11:11:09.453Z,87.92
2022-11-27T11:12:09.455Z,88.22
2022-11-27T11:13:09.428Z,88.22
2022-11-27T11:14:09.431Z,88.12
2022-11-27T11:15:09.421Z,88.32
2022-11-27T11:16:13.438Z,88.32
2022-11-27T11:17:09.524Z,87.81
2022-11-27T11:18:09.388Z,88.29
2022-11-27T11:19:09.370Z,87.56
2022-11-27T11:20:09.373Z,87.35
2022-11-27T11:21:09.357Z,87.15
2022-11-27T11:22:13.283Z,88.08
2022-11-27T11:23:09.355Z,87.35
2022-11-27T11:24:09.329Z,87.26
2022-11-27T11:25:09.310Z,86.84
2022-11-27T11:26:09.486Z,86.63
2022-11-27T11:27:09.298Z,86.74
2022-11-27T11:28:09.276Z,86.53
2022-11-27T11:29:09.277Z,86.84
2022-11-27T11:30:09.259Z,87.26
2022-11-27T11:31:09.247Z,86.84
2022-11-27T11:32:09.350Z,86.43
2022-11-27T11:33:09.240Z,86.39
2022-11-27T11:34:09.329Z,86.49
2022-11-27T11:35:09.199Z,86.39
2022-11-27T11:36:09.204Z,86.70
2022-11-27T11:37:09.426Z,86.49
2022-11-27T11:38:09.178Z,86.60
2022-11-27T11:39:09.180Z,86.49
2022-11-27T11:40:14.674Z,86.08
2022-11-27T11:41:09.169Z,85.77
2022-11-27T11:42:09.199Z,85.57
2022-11-27T11:43:09.124Z,85.11
2022-11-27T11:44:09.121Z,85.31
2022-11-27T11:45:09.107Z,84.91
2022-11-27T11:46:09.268Z,84.70
2022-11-27T11:47:09.080Z,84.59
2022-11-27T11:48:09.096Z,84.80
2022-11-27T11:49:09.058Z,84.39
2022-11-27T11:50:09.061Z,84.08
2022-11-27T11:51:09.043Z,83.77
2022-11-27T11:52:09.032Z,83.56
2022-11-27T11:53:09.014Z,83.87
2022-11-27T11:54:09.007Z,83.77
2022-11-27T11:55:09.016Z,83.15
2022-11-27T11:56:09.008Z,83.26
2022-11-27T11:57:08.979Z,83.84
2022-11-27T11:58:09.101Z,83.32
2022-11-27T11:59:08.956Z,82.91
2022-11-27T12:00:08.959Z,83.01
2022-11-27T12:01:26.478Z,82.70
2022-11-27T12:02:08.956Z,83.22
2022-11-27T12:03:08.907Z,82.50
2022-11-27T12:04:08.952Z,83.01
2022-11-27T12:05:08.884Z,82.50
2022-11-27T12:06:08.891Z,82.25
2022-11-27T12:07:09.608Z,82.05
2022-11-27T12:08:08.917Z,82.77
2022-11-27T12:09:08.844Z,83.07
2022-11-27T12:10:08.838Z,83.28
2022-11-27T12:11:08.852Z,82.56
2022-11-27T12:12:08.841Z,82.87
2022-11-27T12:13:08.817Z,82.87
2022-11-27T12:14:08.797Z,83.28
2022-11-27T12:15:08.790Z,82.56
2022-11-27T12:16:08.868Z,83.49
2022-11-27T12:17:08.768Z,82.87
2022-11-27T12:18:08.761Z,83.07
2022-11-27T12:19:08.741Z,82.87
2022-11-27T12:20:08.798Z,83.07
2022-11-27T12:21:08.713Z,84.11
2022-11-27T12:22:08.719Z,84.42
2022-11-27T12:23:08.719Z,84.83
2022-11-27T12:24:08.689Z,84.35
2022-11-27T12:25:08.683Z,84.97
2022-11-27T12:26:08.780Z,84.25
2022-11-27T12:27:08.654Z,83.94
2022-11-27T12:28:08.655Z,84.35
2022-11-27T12:29:08.633Z,85.17
2022-11-27T12:30:08.643Z,84.14
2022-11-27T12:31:08.683Z,84.25
2022-11-27T12:32:08.622Z,84.45
2022-11-27T12:33:08.599Z,84.35
2022-11-27T12:34:08.616Z,84.42
2022-11-27T12:35:08.572Z,84.83
2022-11-27T12:36:08.627Z,84.00
2022-11-27T12:37:13.587Z,83.39
2022-11-27T12:38:08.551Z,83.80
2022-11-27T12:39:08.549Z,83.90
2022-11-27T12:40:08.534Z,84.00
2022-11-27T12:41:08.528Z,83.59
2022-11-27T12:42:08.500Z,84.42
2022-11-27T12:43:08.490Z,84.42
2022-11-27T12:44:08.493Z,84.11
2022-11-27T12:45:08.471Z,84.52
2022-11-27T12:46:08.522Z,84.62
2022-11-27T12:47:08.459Z,83.59
2022-11-27T12:48:08.451Z,83.80
2022-11-27T12:49:08.428Z,84.62
2022-11-27T12:50:08.427Z,84.52
2022-11-27T12:51:08.436Z,84.62
2022-11-27T12:52:08.420Z,84.42